Hauptseite
METAR-TAF:

METAR-TAF

Flughäfen :

NATO-Flugplatz Geilenkirchen

Geilenkirchen, Deutschland

Breite: 50-57-39N, Länge: 006-2-33E, Höhe: 90 m

METAR: fehlend

Zeit: 06:37 (05:37 UTC)

Prognose

Neuester Wetterbericht von vor 12 Stunden und 37 Minuten, um 17:00 UTC
Gültige Prognose vom 15 um 18 UTC bis 16 um 09 UTC
Wind 4 kt aus Ost/Südost
Durchbrochene Bewölkung in der Höhe von 3000 ft
Durchbrochene Bewölkung in der Höhe von 11000 ft
Übergehend zu
vom 15 um 18 UTC bis 15 um 20 UTC
Wind 4 kt aus Süd/Südost
Sichtweite 10 km oder mehr
keine Wolken unter 1500 m und keine Kumulonimbus oder Gewitterwolken

TAF: ETNG 151700Z 1518/1609 12004KT BKN030 BKN110 BECMG 1518/1520 15004KT CAVOK

Wetterbeobachtungen und Prognosen von mehr als 4000 Flughäfen (METAR und TAF Bericht).

Die verfügbaren Stationen werden durch gelbe und rote Markierungen auf der Karte dargestellt.

Führen Sie die Maus auf sie, um den Namen der Station zu sehen.

Darauf klicken, um die Beobachtung von Wetterbeobachtungen und Prognosen zu sehen.

Um die Karte zu ändern : klicken Sie auf den grünen Tasten mit einem schwarzen Kreuz Zum Vergrößern, auf den grünen Button mit einem Gedankenstrich zu verkleinern, oder auf die grünen Pfeile für benachbarte Karten.


METAR-TAF: